createdAt,value
2018-03-22T00:01:59.992Z,6.93
2018-03-22T00:04:28.261Z,8.52
2018-03-22T00:06:55.702Z,7.68
2018-03-22T00:09:23.135Z,7.37
2018-03-22T00:11:50.570Z,6.93
2018-03-22T00:14:17.998Z,7.30
2018-03-22T00:16:45.562Z,7.35
2018-03-22T00:19:12.997Z,7.32
2018-03-22T00:21:40.441Z,6.70
2018-03-22T00:24:09.010Z,6.72
2018-03-22T00:26:36.847Z,7.50
2018-03-22T00:29:04.280Z,6.47
2018-03-22T00:31:31.713Z,6.32
2018-03-22T00:33:59.153Z,7.12
2018-03-22T00:36:26.595Z,8.23
2018-03-22T00:38:54.012Z,7.00
2018-03-22T00:41:21.441Z,7.70
2018-03-22T00:43:48.884Z,6.75
2018-03-22T00:46:16.313Z,7.12
2018-03-22T00:48:43.747Z,7.57
2018-03-22T00:51:11.185Z,7.82
2018-03-22T00:53:38.619Z,7.25
2018-03-22T00:56:06.133Z,8.75
2018-03-22T00:58:33.565Z,6.78
2018-03-22T01:01:00.995Z,7.65
2018-03-22T01:03:28.428Z,7.70
2018-03-22T01:05:56.248Z,7.40
2018-03-22T01:08:23.680Z,7.47
2018-03-22T01:10:51.105Z,7.07
2018-03-22T01:13:18.928Z,8.73
2018-03-22T01:15:46.359Z,8.27
2018-03-22T01:18:13.816Z,8.77
2018-03-22T01:20:41.278Z,6.53
2018-03-22T01:23:08.709Z,7.97
2018-03-22T01:25:36.156Z,7.15
2018-03-22T01:28:03.583Z,8.45
2018-03-22T01:30:46.779Z,6.15
2018-03-22T01:33:14.212Z,6.82
2018-03-22T01:35:41.640Z,9.55
2018-03-22T01:38:09.657Z,6.50
2018-03-22T01:40:37.072Z,8.32
2018-03-22T01:43:04.505Z,7.80
2018-03-22T01:45:31.932Z,8.43
2018-03-22T01:48:00.176Z,7.00
2018-03-22T01:50:27.629Z,7.07
2018-03-22T01:53:07.360Z,8.20
2018-03-22T01:55:35.195Z,8.20
2018-03-22T01:58:02.621Z,8.07
2018-03-22T02:00:30.065Z,9.65
2018-03-22T02:02:57.494Z,7.97
2018-03-22T02:05:24.935Z,10.27
2018-03-22T02:07:52.364Z,11.07
2018-03-22T02:10:19.819Z,8.45
2018-03-22T02:12:47.244Z,9.27
2018-03-22T02:15:14.677Z,6.03
2018-03-22T02:17:42.505Z,8.70
2018-03-22T02:20:09.933Z,7.85
2018-03-22T02:22:37.372Z,6.78
2018-03-22T02:25:04.807Z,7.10
2018-03-22T02:27:32.633Z,7.18
2018-03-22T02:30:00.070Z,7.20
2018-03-22T02:32:27.497Z,8.68
2018-03-22T02:34:54.934Z,6.07
2018-03-22T02:37:22.372Z,8.48
2018-03-22T02:39:49.800Z,6.03
2018-03-22T02:42:17.237Z,8.90
2018-03-22T02:44:44.666Z,7.12
2018-03-22T02:47:12.102Z,7.22
2018-03-22T02:49:39.537Z,7.47
2018-03-22T02:52:06.989Z,10.25
2018-03-22T02:54:34.412Z,7.82
2018-03-22T02:57:01.851Z,7.25
2018-03-22T02:59:29.689Z,6.07
2018-03-22T03:01:57.122Z,7.78
2018-03-22T03:04:24.554Z,7.95
2018-03-22T03:06:52.072Z,6.90
2018-03-22T03:09:19.501Z,7.87
2018-03-22T03:11:46.920Z,6.68
2018-03-22T03:14:14.913Z,5.10
2018-03-22T03:16:42.350Z,6.53
2018-03-22T03:19:09.788Z,6.03
2018-03-22T03:21:37.608Z,8.45
2018-03-22T03:24:05.041Z,7.22
2018-03-22T03:26:32.481Z,6.22
2018-03-22T03:28:59.932Z,5.85
2018-03-22T03:31:27.345Z,6.12
2018-03-22T03:33:54.776Z,5.72
2018-03-22T03:36:22.200Z,4.97
2018-03-22T03:38:49.628Z,5.05
2018-03-22T03:41:17.086Z,6.85
2018-03-22T03:43:44.481Z,5.10
2018-03-22T03:46:11.904Z,5.82
2018-03-22T03:48:39.325Z,6.22
2018-03-22T03:51:06.769Z,6.10
2018-03-22T03:53:34.190Z,5.65
2018-03-22T03:56:01.632Z,4.18
2018-03-22T03:58:29.778Z,5.53
2018-03-22T04:00:57.216Z,5.12
2018-03-22T04:03:24.645Z,5.97
2018-03-22T04:05:52.074Z,4.20
2018-03-22T04:08:19.893Z,4.93
2018-03-22T04:10:47.335Z,4.78
2018-03-22T04:13:14.771Z,6.12
2018-03-22T04:15:42.194Z,4.90
2018-03-22T04:18:09.616Z,5.35
2018-03-22T04:20:37.065Z,5.07
2018-03-22T04:23:04.543Z,5.85
2018-03-22T04:25:31.972Z,6.47
2018-03-22T04:27:59.403Z,6.60
2018-03-22T04:30:27.226Z,6.53
2018-03-22T04:32:54.653Z,5.10
2018-03-22T04:35:22.081Z,6.15
2018-03-22T04:37:49.508Z,5.93
2018-03-22T04:40:16.936Z,6.53
2018-03-22T04:42:44.377Z,5.93
2018-03-22T04:45:11.797Z,6.30
2018-03-22T04:47:39.627Z,6.22
2018-03-22T04:50:07.056Z,5.47
2018-03-22T04:52:34.512Z,7.10
2018-03-22T04:55:01.922Z,5.30
2018-03-22T04:57:29.758Z,6.25
2018-03-22T04:59:57.189Z,6.55
2018-03-22T05:02:24.632Z,6.22
2018-03-22T05:04:52.059Z,7.37
2018-03-22T05:07:19.888Z,6.78
2018-03-22T05:09:47.306Z,6.25
2018-03-22T05:12:14.777Z,5.18
2018-03-22T05:14:42.211Z,7.30
2018-03-22T05:17:09.648Z,6.60
2018-03-22T05:19:37.473Z,4.93
2018-03-22T05:22:04.905Z,6.25
2018-03-22T05:24:32.341Z,7.28
2018-03-22T05:27:00.171Z,4.72
2018-03-22T05:29:27.605Z,5.62
2018-03-22T05:31:55.028Z,6.28
2018-03-22T05:34:22.465Z,7.50
2018-03-22T05:36:49.894Z,6.25
2018-03-22T05:39:17.333Z,6.18
2018-03-22T05:41:44.777Z,6.50
2018-03-22T05:44:12.189Z,4.05
2018-03-22T05:46:40.008Z,6.82
2018-03-22T05:49:07.454Z,6.40
2018-03-22T05:51:34.893Z,5.85
2018-03-22T05:54:02.324Z,5.87
2018-03-22T05:56:29.748Z,4.70
2018-03-22T05:58:57.189Z,4.95
2018-03-22T06:01:24.616Z,4.37
2018-03-22T06:03:52.036Z,5.87
2018-03-22T06:06:19.466Z,5.68
2018-03-22T06:08:46.914Z,4.60
2018-03-22T06:11:14.385Z,5.70
2018-03-22T06:13:41.809Z,5.90
2018-03-22T06:16:09.238Z,6.30
2018-03-22T06:18:36.676Z,5.05
2018-03-22T06:21:04.097Z,4.62
2018-03-22T06:23:31.538Z,5.22
2018-03-22T06:25:58.977Z,4.47
2018-03-22T06:28:26.389Z,5.05
2018-03-22T06:30:53.832Z,4.87
2018-03-22T06:33:21.273Z,4.28
2018-03-22T06:35:48.705Z,5.60
2018-03-22T06:38:16.121Z,5.25
2018-03-22T06:40:43.552Z,4.95
2018-03-22T06:43:10.974Z,4.43
2018-03-22T06:45:38.408Z,4.55
2018-03-22T06:48:06.229Z,4.20
2018-03-22T06:50:33.668Z,5.30
2018-03-22T06:53:01.094Z,4.30
2018-03-22T06:55:28.917Z,4.00
2018-03-22T06:57:56.339Z,5.22
2018-03-22T07:02:57.671Z,5.15
2018-03-22T07:05:25.117Z,5.22
2018-03-22T07:07:52.548Z,4.47
2018-03-22T07:10:19.958Z,5.40
2018-03-22T07:12:47.396Z,4.78
2018-03-22T07:15:15.215Z,5.05
2018-03-22T07:17:42.653Z,4.87
2018-03-22T07:20:10.077Z,5.03
2018-03-22T07:22:37.496Z,5.12
2018-03-22T07:25:04.928Z,5.72
2018-03-22T07:27:32.348Z,3.67
2018-03-22T07:30:00.165Z,4.07
2018-03-22T07:32:27.600Z,4.65
2018-03-22T07:34:55.017Z,4.82
2018-03-22T07:37:22.460Z,3.72
2018-03-22T07:39:50.732Z,4.70
2018-03-22T07:42:18.152Z,3.62
2018-03-22T07:44:47.996Z,4.35
2018-03-22T07:47:15.436Z,5.20
2018-03-22T07:49:42.850Z,5.00
2018-03-22T07:52:10.260Z,4.85
2018-03-22T07:54:37.693Z,4.93
2018-03-22T07:57:05.176Z,4.72
2018-03-22T07:59:32.605Z,4.72
2018-03-22T08:02:00.022Z,4.28
2018-03-22T08:04:27.845Z,6.03
2018-03-22T08:06:55.295Z,4.40
2018-03-22T08:09:22.753Z,4.87
2018-03-22T08:11:50.186Z,4.85
2018-03-22T08:14:17.604Z,4.47
2018-03-22T08:16:45.067Z,4.20
2018-03-22T08:19:12.476Z,6.05
2018-03-22T08:21:39.906Z,4.93
2018-03-22T08:24:07.350Z,5.20
2018-03-22T08:26:34.789Z,5.40
2018-03-22T08:29:02.200Z,4.55
2018-03-22T08:31:29.657Z,4.30
2018-03-22T08:33:57.220Z,4.65
2018-03-22T08:36:24.648Z,4.40
2018-03-22T08:38:52.067Z,5.30
2018-03-22T08:41:19.915Z,5.53
2018-03-22T08:43:47.326Z,4.47
2018-03-22T08:46:14.758Z,5.28
2018-03-22T08:48:42.163Z,4.87
2018-03-22T08:51:09.599Z,6.62
2018-03-22T08:53:37.031Z,5.47
2018-03-22T08:56:04.444Z,5.78
2018-03-22T08:58:31.873Z,5.62
2018-03-22T09:00:59.299Z,5.87
2018-03-22T09:03:26.709Z,5.93
2018-03-22T09:05:54.142Z,5.55
2018-03-22T09:08:21.564Z,7.15
2018-03-22T09:10:48.985Z,5.57
2018-03-22T09:13:16.418Z,7.65
2018-03-22T09:15:43.849Z,6.62
2018-03-22T09:18:11.269Z,6.72
2018-03-22T09:20:38.702Z,8.52
2018-03-22T09:23:06.112Z,7.20
2018-03-22T09:25:33.584Z,8.07
2018-03-22T09:28:00.996Z,7.40
2018-03-22T09:30:28.808Z,7.35
2018-03-22T09:32:56.229Z,7.05
2018-03-22T09:35:23.657Z,7.68
2018-03-22T09:37:51.081Z,8.52
2018-03-22T09:40:18.500Z,9.82
2018-03-22T09:42:46.330Z,7.50
2018-03-22T09:45:13.760Z,7.87
2018-03-22T09:47:41.202Z,8.43
2018-03-22T09:50:08.621Z,8.40
2018-03-22T09:52:36.452Z,7.55
2018-03-22T09:55:03.872Z,9.02
2018-03-22T09:57:31.321Z,7.37
2018-03-22T09:59:58.759Z,9.18
2018-03-22T10:02:26.581Z,9.20
2018-03-22T10:04:54.018Z,9.95
2018-03-22T10:07:21.476Z,10.40
2018-03-22T10:09:48.875Z,10.05
2018-03-22T10:12:16.316Z,9.55
2018-03-22T10:14:43.772Z,12.15
2018-03-22T10:17:11.195Z,11.02
2018-03-22T10:19:38.620Z,9.95
2018-03-22T10:22:06.442Z,10.75
2018-03-22T10:24:33.874Z,11.98
2018-03-22T10:27:01.296Z,11.60
2018-03-22T10:29:29.123Z,10.75
2018-03-22T10:31:56.558Z,13.55
2018-03-22T10:34:23.989Z,12.35
2018-03-22T10:36:51.420Z,13.10
2018-03-22T10:39:18.861Z,13.80
2018-03-22T10:41:46.290Z,13.07
2018-03-22T10:44:13.725Z,14.98
2018-03-22T10:46:41.149Z,12.52
2018-03-22T10:49:08.594Z,11.80
2018-03-22T10:51:36.025Z,12.18
2018-03-22T10:54:03.462Z,13.48
2018-03-22T10:56:30.880Z,11.82
2018-03-22T10:58:58.710Z,12.27
2018-03-22T11:01:31.856Z,13.62
2018-03-22T11:03:59.301Z,11.38
2018-03-22T11:06:27.129Z,13.20
2018-03-22T11:08:54.554Z,11.30
2018-03-22T11:11:22.015Z,12.82
2018-03-22T11:13:49.450Z,13.62
2018-03-22T11:16:16.878Z,11.20
2018-03-22T11:18:44.701Z,14.82
2018-03-22T11:21:12.157Z,14.27
2018-03-22T11:23:39.572Z,12.00
2018-03-22T11:26:07.009Z,14.32
2018-03-22T11:28:34.433Z,12.55
2018-03-22T11:31:01.873Z,14.93
2018-03-22T11:33:29.305Z,13.07
2018-03-22T11:35:56.740Z,13.40
2018-03-22T11:38:24.557Z,16.25
2018-03-22T11:40:51.988Z,13.88
2018-03-22T11:43:19.469Z,13.90
2018-03-22T11:45:46.853Z,15.15
2018-03-22T11:48:14.276Z,15.68
2018-03-22T11:50:41.713Z,15.98
2018-03-22T11:53:09.137Z,14.90
2018-03-22T11:55:36.569Z,15.05
2018-03-22T11:58:03.996Z,16.30
2018-03-22T12:00:31.440Z,15.35
2018-03-22T12:02:58.867Z,14.82
2018-03-22T12:05:26.300Z,13.73
2018-03-22T12:07:53.733Z,16.70
2018-03-22T12:10:21.161Z,17.30
2018-03-22T12:12:48.597Z,16.48
2018-03-22T12:15:16.417Z,16.62
2018-03-22T12:17:43.857Z,15.65
2018-03-22T12:20:11.288Z,14.10
2018-03-22T12:22:38.732Z,13.52
2018-03-22T12:25:06.159Z,14.82
2018-03-22T12:27:33.601Z,14.93
2018-03-22T12:30:01.021Z,13.98
2018-03-22T12:32:28.454Z,14.60
2018-03-22T12:34:56.277Z,15.23
2018-03-22T12:37:23.719Z,14.65
2018-03-22T12:39:51.145Z,14.02
2018-03-22T12:42:18.577Z,15.98
2018-03-22T12:44:46.004Z,16.33
2018-03-22T12:47:13.420Z,15.13
2018-03-22T12:49:40.856Z,14.77
2018-03-22T12:52:08.689Z,15.50
2018-03-22T12:54:36.133Z,16.62
2018-03-22T12:57:03.552Z,13.65
2018-03-22T12:59:30.980Z,15.45
2018-03-22T13:01:58.413Z,14.95
2018-03-22T13:04:25.848Z,13.60
2018-03-22T13:06:53.269Z,13.27
2018-03-22T13:09:21.101Z,14.07
2018-03-22T13:11:48.528Z,12.02
2018-03-22T13:14:15.965Z,12.52
2018-03-22T13:16:43.390Z,13.85
2018-03-22T13:19:10.828Z,15.25
2018-03-22T13:21:38.257Z,13.95
2018-03-22T13:24:05.701Z,13.27
2018-03-22T13:26:33.116Z,11.40
2018-03-22T13:29:00.952Z,13.60
2018-03-22T13:31:28.381Z,14.50
2018-03-22T13:33:55.831Z,13.02
2018-03-22T13:36:23.259Z,13.23
2018-03-22T13:38:51.084Z,11.95
2018-03-22T13:41:18.517Z,15.05
2018-03-22T13:43:47.311Z,10.68
2018-03-22T13:46:14.737Z,12.18
2018-03-22T13:48:42.165Z,11.55
2018-03-22T13:51:09.596Z,11.57
2018-03-22T13:53:37.025Z,12.50
2018-03-22T13:56:04.500Z,13.35
2018-03-22T13:58:31.940Z,11.00
2018-03-22T14:00:59.402Z,11.68
2018-03-22T14:03:26.886Z,12.80
2018-03-22T14:05:55.238Z,12.05
2018-03-22T14:08:22.665Z,11.68
2018-03-22T14:10:50.110Z,12.82
2018-03-22T14:13:17.556Z,12.85
2018-03-22T14:15:45.025Z,11.40
2018-03-22T14:18:12.897Z,12.10
2018-03-22T14:20:40.320Z,12.15
2018-03-22T14:23:07.767Z,11.10
2018-03-22T14:25:35.238Z,10.68
2018-03-22T14:28:02.682Z,10.70
2018-03-22T14:30:30.123Z,10.48
2018-03-22T14:32:57.588Z,12.13
2018-03-22T14:35:25.024Z,12.00
2018-03-22T14:37:52.524Z,9.93
2018-03-22T14:40:19.951Z,9.55
2018-03-22T14:42:47.427Z,11.35
2018-03-22T14:45:15.779Z,11.20
2018-03-22T14:47:43.233Z,10.85
2018-03-22T14:50:10.709Z,10.93
2018-03-22T14:52:38.163Z,11.52
2018-03-22T14:55:05.622Z,11.70
2018-03-22T14:57:33.070Z,9.90
2018-03-22T15:00:00.509Z,9.60
2018-03-22T15:02:27.972Z,9.50
2018-03-22T15:04:55.456Z,13.07
2018-03-22T15:07:22.910Z,11.00
2018-03-22T15:09:50.378Z,9.82
2018-03-22T15:12:17.856Z,11.12
2018-03-22T15:14:46.282Z,12.00
2018-03-22T15:17:13.745Z,9.77
2018-03-22T15:19:41.205Z,10.55
2018-03-22T15:22:08.693Z,12.20
2018-03-22T15:24:36.143Z,11.18
2018-03-22T15:27:03.611Z,10.10
2018-03-22T15:29:31.107Z,11.43
2018-03-22T15:31:58.579Z,9.40
2018-03-22T15:34:26.105Z,10.55
2018-03-22T15:36:53.970Z,9.23
2018-03-22T15:39:21.819Z,9.05
2018-03-22T15:41:49.332Z,10.07
2018-03-22T15:44:17.455Z,8.10
2018-03-22T15:46:45.286Z,8.55
2018-03-22T15:49:12.748Z,7.60
2018-03-22T15:51:41.589Z,9.98
2018-03-22T15:54:09.480Z,9.23
2018-03-22T15:56:36.929Z,8.25
2018-03-22T15:59:04.418Z,8.05
2018-03-22T16:01:31.849Z,7.87
2018-03-22T16:04:00.132Z,8.75
2018-03-22T16:06:27.596Z,7.53
2018-03-22T16:08:56.136Z,8.30
2018-03-22T16:11:23.990Z,7.70
2018-03-22T16:13:51.846Z,7.82
2018-03-22T16:16:19.303Z,9.07
2018-03-22T16:18:46.740Z,11.10
2018-03-22T16:21:14.195Z,9.60
2018-03-22T16:23:42.438Z,9.13
2018-03-22T16:26:09.891Z,8.88
2018-03-22T16:28:37.326Z,8.23
2018-03-22T16:31:04.783Z,8.95
2018-03-22T16:33:32.761Z,9.45
2018-03-22T16:36:00.229Z,8.30
2018-03-22T16:38:27.700Z,9.52
2018-03-22T16:40:55.148Z,9.07
2018-03-22T16:43:22.651Z,7.20
2018-03-22T16:45:50.099Z,9.18
2018-03-22T16:48:17.552Z,8.88
2018-03-22T16:50:45.012Z,8.27
2018-03-22T16:53:12.498Z,7.50
2018-03-22T16:55:39.943Z,7.85
2018-03-22T16:58:07.426Z,8.73
2018-03-22T17:00:34.862Z,8.80
2018-03-22T17:03:02.307Z,8.07
2018-03-22T17:05:29.769Z,7.80
2018-03-22T17:07:57.231Z,9.13
2018-03-22T17:10:24.697Z,8.02
2018-03-22T17:12:52.173Z,8.77
2018-03-22T17:15:19.603Z,8.23
2018-03-22T17:17:47.105Z,8.93
2018-03-22T17:20:14.510Z,7.78
2018-03-22T17:22:41.941Z,9.00
2018-03-22T17:25:09.360Z,8.60
2018-03-22T17:27:36.784Z,6.80
2018-03-22T17:30:04.605Z,8.27
2018-03-22T17:32:32.065Z,7.30
2018-03-22T17:34:59.496Z,8.45
2018-03-22T17:37:26.908Z,7.30
2018-03-22T17:39:54.729Z,8.27
2018-03-22T17:42:22.795Z,8.48
2018-03-22T17:44:50.258Z,7.25
2018-03-22T17:47:17.699Z,8.80
2018-03-22T17:49:45.149Z,8.60
2018-03-22T17:52:12.973Z,7.45
2018-03-22T17:54:40.443Z,7.03
2018-03-22T17:57:07.942Z,7.05
2018-03-22T17:59:35.444Z,7.45
2018-03-22T18:02:02.876Z,7.18
2018-03-22T18:04:30.350Z,7.70
2018-03-22T18:06:57.826Z,7.28
2018-03-22T18:09:25.268Z,8.27
2018-03-22T18:11:52.758Z,6.28
2018-03-22T18:14:20.992Z,7.37
2018-03-22T18:16:48.453Z,7.05
2018-03-22T18:19:15.897Z,7.47
2018-03-22T18:21:44.031Z,6.62
2018-03-22T18:24:11.855Z,8.35
2018-03-22T18:26:39.715Z,8.13
2018-03-22T18:29:07.141Z,8.95
2018-03-22T18:31:34.635Z,7.70
2018-03-22T18:34:02.061Z,7.72
2018-03-22T18:36:29.519Z,8.13
2018-03-22T18:38:56.978Z,8.05
2018-03-22T18:41:24.424Z,7.07
2018-03-22T18:43:51.868Z,9.50
2018-03-22T18:46:19.323Z,8.52
2018-03-22T18:48:46.769Z,9.07
2018-03-22T18:51:14.621Z,6.90
2018-03-22T18:53:42.463Z,8.40
2018-03-22T18:56:09.921Z,6.70
2018-03-22T18:58:37.810Z,8.48
2018-03-22T19:01:06.522Z,9.40
2018-03-22T19:03:33.924Z,8.25
2018-03-22T19:06:01.668Z,7.40
2018-03-22T19:08:31.070Z,9.10
2018-03-22T19:10:58.513Z,8.32
2018-03-22T19:13:25.950Z,7.00
2018-03-22T19:15:53.396Z,7.47
2018-03-22T19:18:21.894Z,8.95
2018-03-22T19:20:49.332Z,8.52
2018-03-22T19:23:16.787Z,8.32
2018-03-22T19:25:44.250Z,8.90
2018-03-22T19:28:12.089Z,7.40
2018-03-22T19:30:39.531Z,8.10
2018-03-22T19:33:07.813Z,8.95
2018-03-22T19:35:35.275Z,9.15
2018-03-22T19:38:02.797Z,9.25
2018-03-22T19:40:30.639Z,9.35
2018-03-22T19:42:58.987Z,8.63
2018-03-22T19:45:26.436Z,8.95
2018-03-22T19:47:54.620Z,9.55
2018-03-22T19:50:22.469Z,10.30
2018-03-22T19:52:49.928Z,10.85
2018-03-22T19:55:17.642Z,9.70
2018-03-22T19:57:45.096Z,11.18
2018-03-22T20:00:12.540Z,9.93
2018-03-22T20:02:40.014Z,10.05
2018-03-22T20:05:07.459Z,11.27
2018-03-22T20:07:34.887Z,11.15
2018-03-22T20:10:03.339Z,12.98
2018-03-22T20:12:31.222Z,8.93
2018-03-22T20:14:58.685Z,10.18
2018-03-22T20:17:26.128Z,10.73
2018-03-22T20:19:53.956Z,10.15
2018-03-22T20:22:21.407Z,11.43
2018-03-22T20:24:49.873Z,10.98
2018-03-22T20:27:17.755Z,11.40
2018-03-22T20:29:45.911Z,11.60
2018-03-22T20:32:13.768Z,10.82
2018-03-22T20:34:41.225Z,11.98
2018-03-22T20:37:09.858Z,12.88
2018-03-22T20:39:37.416Z,11.15
2018-03-22T20:42:04.882Z,12.07
2018-03-22T20:44:32.743Z,10.70
2018-03-22T20:47:00.282Z,10.82
2018-03-22T20:49:27.766Z,10.43
2018-03-22T20:51:56.183Z,11.27
2018-03-22T20:54:24.771Z,10.85
2018-03-22T20:56:53.014Z,12.18
2018-03-22T20:59:20.495Z,11.45
2018-03-22T21:01:47.996Z,13.13
2018-03-22T21:04:15.482Z,12.82
2018-03-22T21:06:43.627Z,13.20
2018-03-22T21:09:11.069Z,12.35
2018-03-22T21:11:39.019Z,12.60
2018-03-22T21:14:06.855Z,12.48
2018-03-22T21:16:34.679Z,13.15
2018-03-22T21:19:02.119Z,11.40
2018-03-22T21:21:29.988Z,11.07
2018-03-22T21:23:58.298Z,13.38
2018-03-22T21:26:25.790Z,11.82
2018-03-22T21:28:53.213Z,12.65
2018-03-22T21:31:20.689Z,15.82
2018-03-22T21:33:48.154Z,14.15
2018-03-22T21:36:16.536Z,11.75
2018-03-22T21:38:43.997Z,13.55
2018-03-22T21:41:11.467Z,14.32
2018-03-22T21:43:50.577Z,13.48
2018-03-22T21:46:18.021Z,10.52
2018-03-22T21:48:45.490Z,14.70
2018-03-22T21:51:12.946Z,13.13
2018-03-22T21:53:40.397Z,11.93
2018-03-22T21:56:07.878Z,13.50
2018-03-22T21:58:35.331Z,14.30
2018-03-22T22:01:02.942Z,15.20
2018-03-22T22:03:30.377Z,13.30
2018-03-22T22:05:57.840Z,17.67
2018-03-22T22:08:25.298Z,13.80
2018-03-22T22:10:52.750Z,15.77
2018-03-22T22:13:20.708Z,14.85
2018-03-22T22:15:48.173Z,14.57
2018-03-22T22:18:15.633Z,16.65
2018-03-22T22:20:43.466Z,14.20
2018-03-22T22:23:10.959Z,15.38
2018-03-22T22:25:38.402Z,16.10
2018-03-22T22:28:05.873Z,14.50
2018-03-22T22:30:33.341Z,15.35
2018-03-22T22:33:00.790Z,17.25
2018-03-22T22:35:28.237Z,16.20
2018-03-22T22:37:55.715Z,17.80
2018-03-22T22:40:23.177Z,17.20
2018-03-22T22:42:51.356Z,17.67
2018-03-22T22:45:19.644Z,14.90
2018-03-22T22:47:48.937Z,14.32
2018-03-22T22:50:16.384Z,16.48
2018-03-22T22:52:43.843Z,16.90
2018-03-22T22:55:11.293Z,15.88
2018-03-22T22:57:38.768Z,17.10
2018-03-22T23:00:06.242Z,16.40
2018-03-22T23:02:33.653Z,16.87
2018-03-22T23:05:01.531Z,15.52
2018-03-22T23:07:28.984Z,19.20
2018-03-22T23:09:56.440Z,15.40
2018-03-22T23:12:23.917Z,13.85
2018-03-22T23:14:51.376Z,16.83
2018-03-22T23:17:19.157Z,16.50
2018-03-22T23:19:46.615Z,17.40
2018-03-22T23:22:14.313Z,15.70
2018-03-22T23:24:42.663Z,15.73
2018-03-22T23:27:10.134Z,16.70
2018-03-22T23:29:37.613Z,14.60
2018-03-22T23:34:53.895Z,19.90
2018-03-22T23:37:21.409Z,16.58
2018-03-22T23:39:48.847Z,16.45
2018-03-22T23:42:16.317Z,16.90
2018-03-22T23:44:43.785Z,16.50
2018-03-22T23:47:11.293Z,16.95
2018-03-22T23:49:40.903Z,12.52
2018-03-22T23:52:08.750Z,15.82
2018-03-22T23:54:36.854Z,15.20
2018-03-22T23:57:04.306Z,15.23
2018-03-22T23:59:32.453Z,14.87
